createdAt,value
2023-03-12T00:12:10.697Z,456.00
2023-03-12T00:13:10.422Z,454.00
2023-03-12T00:15:29.180Z,460.00
2023-03-12T00:22:43.376Z,464.00
2023-03-12T00:23:43.679Z,460.00
2023-03-12T00:24:43.632Z,458.00
2023-03-12T00:25:45.538Z,458.00
2023-03-12T00:26:43.272Z,455.00
2023-03-12T00:27:43.324Z,453.00
2023-03-12T00:28:43.288Z,455.00
2023-03-12T00:29:43.323Z,455.00
2023-03-12T00:30:43.305Z,455.00
2023-03-12T00:31:43.403Z,454.00
2023-03-12T00:32:43.280Z,455.00
2023-03-12T00:33:43.218Z,456.00
2023-03-12T00:34:43.274Z,457.00
2023-03-12T00:35:43.232Z,456.00
2023-03-12T00:36:43.236Z,458.00
2023-03-12T00:37:43.218Z,456.00
2023-03-12T00:38:43.172Z,457.00
2023-03-12T00:39:43.206Z,457.00
2023-03-12T00:40:43.160Z,457.00
2023-03-12T00:41:43.168Z,457.00
2023-03-12T00:42:43.205Z,457.00
2023-03-12T00:43:43.210Z,459.00
2023-03-12T00:44:43.225Z,456.00
2023-03-12T00:45:43.119Z,457.00
2023-03-12T00:46:43.245Z,458.00
2023-03-12T00:47:43.181Z,459.00
2023-03-12T00:48:43.137Z,460.00
2023-03-12T00:49:43.138Z,460.00
2023-03-12T00:50:43.092Z,458.00
2023-03-12T00:51:43.101Z,458.00
2023-03-12T00:52:43.164Z,458.00
2023-03-12T00:53:43.100Z,456.00
2023-03-12T00:54:43.099Z,459.00
2023-03-12T00:55:43.059Z,457.00
2023-03-12T00:56:43.125Z,457.00
2023-03-12T00:57:43.147Z,458.00
2023-03-12T00:58:43.104Z,456.00
2023-03-12T00:59:43.077Z,458.00
2023-03-12T01:00:43.128Z,459.00
2023-03-12T01:11:15.443Z,483.00
2023-03-12T01:12:26.031Z,475.00
2023-03-12T01:22:01.158Z,472.00
2023-03-12T01:24:19.159Z,469.00
2023-03-12T01:30:15.037Z,463.00
2023-03-12T01:33:47.900Z,458.00
2023-03-12T01:36:03.653Z,471.00
2023-03-12T01:37:03.648Z,471.00
2023-03-12T01:38:03.264Z,470.00
2023-03-12T01:39:02.956Z,465.00
2023-03-12T01:40:02.974Z,463.00
2023-03-12T01:41:03.017Z,463.00
2023-03-12T01:42:02.946Z,465.00
2023-03-12T01:43:02.901Z,464.00
2023-03-12T01:44:02.926Z,465.00
2023-03-12T01:45:02.951Z,467.00
2023-03-12T01:46:03.010Z,465.00
2023-03-12T01:47:03.142Z,466.00
2023-03-12T02:23:05.404Z,463.00
2023-03-12T02:25:59.352Z,461.00
2023-03-12T02:26:58.624Z,457.00
2023-03-12T02:27:58.988Z,457.00
2023-03-12T02:33:25.500Z,462.00
2023-03-12T02:38:01.957Z,457.00
2023-03-12T02:39:01.878Z,456.00
2023-03-12T02:42:20.946Z,462.00
2023-03-12T02:49:24.753Z,455.00
2023-03-12T02:56:31.663Z,462.00
2023-03-12T03:01:25.705Z,467.00
2023-03-12T03:02:25.183Z,464.00
2023-03-12T03:03:25.512Z,464.00
2023-03-12T03:04:25.112Z,462.00
2023-03-12T03:05:25.174Z,463.00
2023-03-12T03:06:25.221Z,461.00
2023-03-12T03:07:25.282Z,459.00
2023-03-12T03:08:25.256Z,458.00
2023-03-12T03:09:25.301Z,458.00
2023-03-12T03:10:25.244Z,455.00
2023-03-12T03:11:25.427Z,456.00
2023-03-12T03:12:25.256Z,457.00
2023-03-12T03:13:25.260Z,458.00
2023-03-12T03:14:25.253Z,459.00
2023-03-12T03:15:25.331Z,461.00
2023-03-12T03:16:25.285Z,460.00
2023-03-12T03:17:25.334Z,461.00
2023-03-12T03:18:25.309Z,463.00
2023-03-12T03:19:25.408Z,464.00
2023-03-12T03:20:25.370Z,468.00
2023-03-12T03:21:25.401Z,468.00
2023-03-12T03:22:25.466Z,469.00
2023-03-12T03:23:25.512Z,468.00
2023-03-12T03:24:25.508Z,470.00
2023-03-12T03:25:25.564Z,469.00
2023-03-12T03:26:25.681Z,470.00
2023-03-12T03:27:25.620Z,469.00
2023-03-12T03:28:25.647Z,469.00
2023-03-12T03:29:25.639Z,469.00
2023-03-12T03:30:25.815Z,471.00
2023-03-12T03:31:25.813Z,470.00
2023-03-12T03:32:25.836Z,468.00
2023-03-12T03:33:25.878Z,468.00
2023-03-12T03:34:25.914Z,467.00
2023-03-12T03:35:25.989Z,467.00
2023-03-12T03:36:26.052Z,465.00
2023-03-12T03:37:26.052Z,465.00
2023-03-12T03:38:26.081Z,464.00
2023-03-12T03:39:26.131Z,463.00
2023-03-12T03:40:26.225Z,462.00
2023-03-12T03:41:26.323Z,463.00
2023-03-12T03:42:26.354Z,462.00
2023-03-12T03:43:26.353Z,462.00
2023-03-12T03:46:05.384Z,458.00
2023-03-12T03:48:22.556Z,456.00
2023-03-12T04:14:33.209Z,457.00
2023-03-12T04:25:29.422Z,465.00
2023-03-12T04:28:06.036Z,465.00
2023-03-12T05:50:18.713Z,460.00
2023-03-12T05:51:18.792Z,461.00
2023-03-12T05:52:18.841Z,462.00
2023-03-12T05:53:18.805Z,462.00
2023-03-12T05:54:18.999Z,462.00
2023-03-12T05:55:19.140Z,462.00
2023-03-12T06:11:37.681Z,469.00
2023-03-12T06:23:37.611Z,464.00
2023-03-12T06:24:37.608Z,464.00
2023-03-12T06:25:37.659Z,461.00
2023-03-12T06:26:37.582Z,462.00
2023-03-12T06:27:37.575Z,462.00
2023-03-12T06:28:37.575Z,461.00
2023-03-12T06:29:37.649Z,462.00
2023-03-12T06:30:37.584Z,463.00
2023-03-12T06:31:39.000Z,460.00
2023-03-12T06:32:37.586Z,461.00
2023-03-12T06:33:37.537Z,459.00
2023-03-12T06:34:37.556Z,459.00
2023-03-12T06:36:37.545Z,461.00
2023-03-12T06:38:37.960Z,462.00
2023-03-12T06:44:39.613Z,466.00
2023-03-12T06:50:55.559Z,474.00
2023-03-12T06:53:26.106Z,473.00
2023-03-12T06:54:26.737Z,471.00
2023-03-12T07:00:22.104Z,471.00
2023-03-12T07:01:22.302Z,468.00
2023-03-12T07:02:22.414Z,469.00
2023-03-12T07:03:21.916Z,469.00
2023-03-12T07:04:21.895Z,467.00
2023-03-12T07:05:21.883Z,467.00
2023-03-12T07:06:21.884Z,465.00
2023-03-12T07:09:42.610Z,471.00
2023-03-12T07:16:16.859Z,465.00
2023-03-12T07:17:16.888Z,463.00
2023-03-12T07:18:16.924Z,465.00
2023-03-12T07:19:17.306Z,467.00
2023-03-12T07:20:16.726Z,465.00
2023-03-12T07:21:16.765Z,464.00
2023-03-12T07:22:16.690Z,465.00
2023-03-12T07:23:16.656Z,464.00
2023-03-12T07:24:16.777Z,464.00
2023-03-12T07:25:18.628Z,463.00
2023-03-12T07:26:16.611Z,462.00
2023-03-12T07:27:16.624Z,462.00
2023-03-12T07:28:16.730Z,463.00
2023-03-12T07:29:16.646Z,465.00
2023-03-12T07:30:16.802Z,464.00
2023-03-12T07:31:16.873Z,465.00
2023-03-12T07:32:16.791Z,466.00
2023-03-12T07:33:16.913Z,470.00
2023-03-12T07:34:16.914Z,472.00
2023-03-12T07:35:16.834Z,471.00
2023-03-12T07:36:17.127Z,472.00
2023-03-12T07:37:16.968Z,471.00
2023-03-12T07:38:17.005Z,472.00
2023-03-12T07:39:17.062Z,472.00
2023-03-12T07:40:17.119Z,472.00
2023-03-12T07:48:13.728Z,466.00
2023-03-12T07:50:29.248Z,470.00
2023-03-12T07:59:57.991Z,465.00
2023-03-12T08:02:16.893Z,468.00
2023-03-12T08:05:54.986Z,467.00
2023-03-12T08:08:56.511Z,461.00
2023-03-12T08:11:13.211Z,481.00
2023-03-12T08:12:14.390Z,472.00
2023-03-12T08:14:53.004Z,474.00
2023-03-12T08:15:53.011Z,469.00
2023-03-12T08:16:52.933Z,467.00
2023-03-12T08:17:52.935Z,466.00
2023-03-12T08:18:53.050Z,468.00
2023-03-12T08:19:53.067Z,471.00
2023-03-12T08:21:08.652Z,474.00
2023-03-12T08:22:12.018Z,464.00
2023-03-12T08:23:11.942Z,458.00
2023-03-12T08:24:12.267Z,460.00
2023-03-12T08:25:11.872Z,462.00
2023-03-12T08:26:11.937Z,461.00
2023-03-12T08:27:11.837Z,461.00
2023-03-12T08:28:11.922Z,460.00
2023-03-12T08:29:11.802Z,461.00
2023-03-12T08:30:11.846Z,460.00
2023-03-12T08:31:11.831Z,461.00
2023-03-12T08:32:11.846Z,463.00
2023-03-12T08:33:11.805Z,462.00
2023-03-12T08:34:11.809Z,463.00
2023-03-12T08:35:11.878Z,462.00
2023-03-12T08:36:11.942Z,462.00
2023-03-12T08:37:11.823Z,462.00
2023-03-12T08:38:11.733Z,463.00
2023-03-12T08:39:11.783Z,462.00
2023-03-12T08:40:11.794Z,463.00
2023-03-12T08:43:11.733Z,463.00
2023-03-12T08:44:11.704Z,463.00
2023-03-12T08:45:11.689Z,463.00
2023-03-12T08:46:12.508Z,464.00
2023-03-12T08:47:11.739Z,464.00
2023-03-12T08:48:11.794Z,465.00
2023-03-12T08:49:11.790Z,464.00
2023-03-12T08:50:11.905Z,465.00
2023-03-12T08:51:11.911Z,464.00
2023-03-12T08:52:12.042Z,463.00
2023-03-12T08:53:12.025Z,461.00
2023-03-12T08:54:12.065Z,462.00
2023-03-12T08:55:12.140Z,462.00
2023-03-12T08:56:12.200Z,461.00
2023-03-12T08:57:12.257Z,461.00
2023-03-12T08:58:12.340Z,461.00
2023-03-12T08:59:12.395Z,461.00
2023-03-12T09:00:12.366Z,461.00
2023-03-12T09:01:12.476Z,459.00
2023-03-12T09:02:12.527Z,457.00
2023-03-12T09:03:12.659Z,457.00
2023-03-12T09:04:12.638Z,457.00
2023-03-12T09:05:12.670Z,458.00
2023-03-12T09:06:12.735Z,460.00
2023-03-12T09:07:12.799Z,461.00
2023-03-12T09:08:12.934Z,462.00
2023-03-12T09:09:12.924Z,461.00
2023-03-12T09:10:12.940Z,460.00
2023-03-12T09:11:12.948Z,462.00
2023-03-12T09:12:13.075Z,463.00
2023-03-12T09:13:13.075Z,462.00
2023-03-12T09:14:57.550Z,462.00
2023-03-12T09:16:13.359Z,459.00
2023-03-12T09:17:13.158Z,460.00
2023-03-12T09:18:13.183Z,458.00
2023-03-12T09:19:13.171Z,460.00
2023-03-12T09:20:13.236Z,462.00
2023-03-12T09:21:13.255Z,465.00
2023-03-12T09:22:13.321Z,464.00
2023-03-12T09:23:13.339Z,468.00
2023-03-12T09:24:13.359Z,469.00
2023-03-12T09:25:13.462Z,467.00
2023-03-12T09:26:13.560Z,469.00
2023-03-12T09:27:13.567Z,468.00
2023-03-12T09:28:16.467Z,467.00
2023-03-12T09:29:13.618Z,466.00
2023-03-12T09:30:13.593Z,466.00
2023-03-12T09:31:13.668Z,466.00
2023-03-12T09:32:13.605Z,464.00
2023-03-12T09:33:13.547Z,461.00
2023-03-12T09:34:13.542Z,461.00
2023-03-12T09:35:13.601Z,461.00
2023-03-12T09:36:13.528Z,462.00
2023-03-12T09:37:13.512Z,462.00
2023-03-12T09:38:13.541Z,462.00
2023-03-12T09:39:13.466Z,463.00
2023-03-12T09:40:13.557Z,459.00
2023-03-12T09:41:13.486Z,458.00
2023-03-12T09:42:13.519Z,458.00
2023-03-12T09:43:13.484Z,457.00
2023-03-12T09:44:13.457Z,457.00
2023-03-12T09:45:14.110Z,454.00
2023-03-12T09:46:13.583Z,453.00
2023-03-12T09:47:13.471Z,453.00
2023-03-12T09:48:13.480Z,454.00
2023-03-12T09:49:13.424Z,455.00
2023-03-12T10:22:14.536Z,454.00
2023-03-12T10:23:14.614Z,455.00
2023-03-12T10:24:14.643Z,458.00
2023-03-12T10:25:14.661Z,457.00
2023-03-12T10:27:14.782Z,457.00
2023-03-12T10:28:14.881Z,457.00
2023-03-12T10:35:12.840Z,471.00
2023-03-12T10:40:10.044Z,459.00
2023-03-12T10:41:11.008Z,455.00
2023-03-12T10:42:08.484Z,458.00
2023-03-12T10:45:27.686Z,465.00
2023-03-12T10:48:27.167Z,475.00
2023-03-12T10:50:44.563Z,466.00
2023-03-12T10:58:25.308Z,466.00
2023-03-12T10:59:26.699Z,466.00
2023-03-12T11:02:23.063Z,467.00
2023-03-12T11:04:41.173Z,471.00
2023-03-12T11:06:53.514Z,479.00
2023-03-12T11:07:54.182Z,476.00
2023-03-12T11:09:00.548Z,473.00
2023-03-12T11:10:53.370Z,471.00
2023-03-12T11:11:53.383Z,471.00
2023-03-12T11:12:53.400Z,468.00
2023-03-12T11:13:53.335Z,467.00
2023-03-12T11:14:53.379Z,467.00
2023-03-12T11:15:53.435Z,467.00
2023-03-12T11:16:53.324Z,466.00
2023-03-12T11:17:53.306Z,464.00
2023-03-12T11:18:53.368Z,464.00
2023-03-12T11:19:53.299Z,464.00
2023-03-12T11:20:53.298Z,462.00
2023-03-12T11:21:53.417Z,463.00
2023-03-12T11:22:53.557Z,466.00
2023-03-12T11:23:53.723Z,465.00
2023-03-12T11:24:53.573Z,465.00
2023-03-12T11:25:53.566Z,465.00
2023-03-12T11:26:53.665Z,467.00
2023-03-12T11:27:53.711Z,468.00
2023-03-12T11:31:33.410Z,469.00
2023-03-12T11:36:12.875Z,466.00
2023-03-12T11:37:10.006Z,468.00
2023-03-12T11:44:08.755Z,472.00
2023-03-12T12:55:19.857Z,456.00
2023-03-12T12:56:18.472Z,456.00
2023-03-12T12:57:18.387Z,457.00
2023-03-12T12:58:18.527Z,457.00
2023-03-12T13:01:56.517Z,464.00
2023-03-12T13:02:56.240Z,464.00
2023-03-12T13:03:56.287Z,462.00
2023-03-12T13:04:56.177Z,463.00
2023-03-12T13:05:56.206Z,460.00
2023-03-12T13:06:56.043Z,461.00
2023-03-12T13:07:56.096Z,462.00
2023-03-12T13:08:56.143Z,461.00
2023-03-12T13:09:55.993Z,463.00
2023-03-12T13:11:06.255Z,462.00
2023-03-12T13:11:57.114Z,465.00
2023-03-12T13:12:56.009Z,463.00
2023-03-12T13:13:56.010Z,466.00
2023-03-12T13:14:55.977Z,468.00
2023-03-12T13:15:56.093Z,468.00
2023-03-12T13:16:55.949Z,469.00
2023-03-12T13:17:56.165Z,469.00
2023-03-12T13:18:56.075Z,466.00
2023-03-12T13:20:01.468Z,466.00
2023-03-12T13:20:57.122Z,468.00
2023-03-12T13:21:56.209Z,464.00
2023-03-12T13:22:56.231Z,462.00
2023-03-12T13:26:56.126Z,459.00
2023-03-12T13:27:56.149Z,457.00
2023-03-12T13:29:11.499Z,456.00
2023-03-12T13:30:56.198Z,458.00
2023-03-12T13:33:32.597Z,464.00
2023-03-12T13:35:50.715Z,468.00
2023-03-12T13:41:24.051Z,467.00
2023-03-12T13:42:23.113Z,458.00
2023-03-12T13:44:42.035Z,457.00
2023-03-12T13:56:17.767Z,460.00
2023-03-12T14:00:54.877Z,466.00
2023-03-12T14:01:54.756Z,462.00
2023-03-12T14:04:13.946Z,460.00
2023-03-12T14:09:57.084Z,467.00
2023-03-12T14:15:28.697Z,460.00
2023-03-12T14:17:46.916Z,458.00
2023-03-12T14:18:46.933Z,456.00
2023-03-12T14:19:47.090Z,456.00
2023-03-12T14:20:46.960Z,458.00
2023-03-12T14:21:46.939Z,459.00
2023-03-12T14:22:47.036Z,457.00
2023-03-12T14:24:46.853Z,458.00
2023-03-12T14:25:46.888Z,458.00
2023-03-12T14:26:47.206Z,457.00
2023-03-12T14:27:46.925Z,457.00
2023-03-12T14:28:47.000Z,459.00
2023-03-12T14:29:47.065Z,459.00
2023-03-12T14:30:47.320Z,460.00
2023-03-12T14:31:47.158Z,459.00
2023-03-12T14:32:47.363Z,459.00
2023-03-12T14:33:47.336Z,461.00
2023-03-12T14:34:47.403Z,460.00
2023-03-12T14:35:47.445Z,460.00
2023-03-12T14:36:47.488Z,459.00
2023-03-12T14:37:47.579Z,461.00
2023-03-12T14:38:47.890Z,461.00
2023-03-12T14:43:54.797Z,460.00
2023-03-12T14:51:48.285Z,470.00
2023-03-12T15:59:55.779Z,466.00
2023-03-12T16:03:44.799Z,469.00
2023-03-12T16:07:30.761Z,462.00
2023-03-12T16:12:27.427Z,477.00
2023-03-12T16:20:35.315Z,466.00
2023-03-12T16:25:34.697Z,459.00
2023-03-12T16:26:33.880Z,458.00
2023-03-12T16:28:52.293Z,467.00
2023-03-12T16:31:34.647Z,461.00
2023-03-12T16:33:55.164Z,469.00
2023-03-12T16:36:34.948Z,467.00
2023-03-12T16:37:35.576Z,460.00
2023-03-12T16:38:35.869Z,461.00
2023-03-12T17:04:27.521Z,462.00
2023-03-12T17:05:27.033Z,465.00
2023-03-12T17:06:27.150Z,462.00
2023-03-12T17:08:46.422Z,463.00
2023-03-12T17:13:56.451Z,461.00
2023-03-12T17:51:24.820Z,467.00
2023-03-12T17:53:36.533Z,470.00
2023-03-12T17:54:36.683Z,468.00
2023-03-12T17:55:36.482Z,470.00
2023-03-12T17:56:36.585Z,472.00
2023-03-12T17:57:36.326Z,472.00
2023-03-12T17:58:36.389Z,473.00
2023-03-12T17:59:36.524Z,471.00
2023-03-12T18:00:36.532Z,471.00
2023-03-12T18:06:47.833Z,475.00
2023-03-12T18:15:34.814Z,472.00
2023-03-12T18:26:59.226Z,478.00
2023-03-12T18:33:53.470Z,472.00
2023-03-12T18:36:13.054Z,484.00
2023-03-12T18:38:58.196Z,473.00
2023-03-12T18:39:56.532Z,472.00
2023-03-12T18:50:07.699Z,470.00
2023-03-12T18:57:57.748Z,468.00
2023-03-12T20:27:06.924Z,485.00
2023-03-12T20:50:30.694Z,488.00
2023-03-12T21:36:43.333Z,496.00
2023-03-12T21:39:48.210Z,498.00
2023-03-12T21:40:48.114Z,493.00
2023-03-12T21:42:47.884Z,492.00
2023-03-12T21:43:47.830Z,494.00
2023-03-12T21:44:47.865Z,494.00
2023-03-12T21:45:47.822Z,496.00
2023-03-12T21:46:47.828Z,494.00
2023-03-12T21:47:47.756Z,493.00
2023-03-12T21:48:47.851Z,493.00
2023-03-12T21:49:47.795Z,493.00
2023-03-12T21:50:47.749Z,491.00
2023-03-12T21:51:47.773Z,491.00
2023-03-12T21:52:47.840Z,492.00
2023-03-12T21:53:47.725Z,490.00
2023-03-12T21:54:47.782Z,490.00
2023-03-12T21:55:47.720Z,488.00
2023-03-12T21:56:47.713Z,488.00
2023-03-12T21:57:47.715Z,492.00
2023-03-12T21:58:47.733Z,493.00
2023-03-12T21:59:47.889Z,492.00
2023-03-12T22:00:47.850Z,490.00
2023-03-12T22:01:48.034Z,490.00
2023-03-12T22:02:48.025Z,488.00
2023-03-12T22:03:48.119Z,489.00
2023-03-12T22:04:48.110Z,489.00
2023-03-12T22:05:48.150Z,488.00
2023-03-12T22:06:48.244Z,489.00
2023-03-12T22:07:48.339Z,491.00
2023-03-12T22:08:48.332Z,490.00
2023-03-12T22:09:48.356Z,490.00
2023-03-12T22:10:48.480Z,490.00
2023-03-12T22:11:48.480Z,489.00
2023-03-12T22:12:48.541Z,487.00
2023-03-12T22:13:48.645Z,487.00
2023-03-12T22:14:48.620Z,484.00
2023-03-12T22:15:48.883Z,483.00
2023-03-12T22:16:48.776Z,484.00
2023-03-12T22:17:48.835Z,485.00
2023-03-12T22:18:48.911Z,486.00
2023-03-12T22:19:49.047Z,485.00
2023-03-12T23:05:51.753Z,495.00
2023-03-12T23:06:55.267Z,497.00
2023-03-12T23:07:52.858Z,497.00
2023-03-12T23:08:51.962Z,497.00
2023-03-12T23:09:51.755Z,496.00
2023-03-12T23:10:51.789Z,496.00
2023-03-12T23:11:51.749Z,493.00
2023-03-12T23:12:51.789Z,493.00
2023-03-12T23:13:51.852Z,493.00
2023-03-12T23:14:51.875Z,495.00
2023-03-12T23:15:52.066Z,496.00
2023-03-12T23:16:52.022Z,494.00
2023-03-12T23:17:52.081Z,492.00
2023-03-12T23:18:52.135Z,494.00
2023-03-12T23:19:52.199Z,495.00
2023-03-12T23:20:52.234Z,495.00
2023-03-12T23:21:52.319Z,496.00
2023-03-12T23:22:52.407Z,497.00
2023-03-12T23:23:52.549Z,497.00
2023-03-12T23:24:52.556Z,495.00
2023-03-12T23:25:52.581Z,493.00
2023-03-12T23:26:52.618Z,494.00
2023-03-12T23:27:52.722Z,493.00
2023-03-12T23:28:52.738Z,493.00
2023-03-12T23:29:52.855Z,492.00
2023-03-12T23:30:52.880Z,493.00
2023-03-12T23:31:52.958Z,494.00
2023-03-12T23:32:53.062Z,493.00
2023-03-12T23:33:53.025Z,493.00
2023-03-12T23:34:53.242Z,494.00
2023-03-12T23:35:53.154Z,495.00
2023-03-12T23:36:53.287Z,495.00
2023-03-12T23:37:53.342Z,493.00
2023-03-12T23:38:53.320Z,491.00
2023-03-12T23:39:55.060Z,493.00
2023-03-12T23:40:53.411Z,492.00
2023-03-12T23:41:53.494Z,495.00
2023-03-12T23:42:53.576Z,494.00
2023-03-12T23:48:05.988Z,491.00
2023-03-12T23:50:24.803Z,488.00
2023-03-12T23:53:42.989Z,489.00
2023-03-12T23:56:42.770Z,494.00
2023-03-12T23:57:42.735Z,494.00
2023-03-12T23:58:42.754Z,494.00
2023-03-12T23:59:42.867Z,496.00
